KFEP

Details ICAO KFEP
Name ALBERTUS
Region United States
Timezone America/Chicago (UTC-5.0)
Plans Departing 1
Arriving 0
Stats Elevation 859 ft / 262 m (AMSL)
Location 42.247011° -89.582014°
Runways 3
Magnetic Variation 2.468° W
Sunrise 2018-05-20 10:33:55 UTC / 2018-05-20 05:33:55 Local
Sunset 2018-05-21 01:18:40 UTC / 2018-05-20 20:18:40 Local
Advertisement - Login to hide

Runways

ID Width Length Bearing (true) Bearing (mag) Surface Threshold Offset Overrun Length
06 100 ft / 30 m 5,564 ft / 1,696 m 53.18° 55.65° Asphalt 0 ft / 0 m 0 ft / 0 m
13 150 ft / 46 m 2,282 ft / 696 m 126.11° 128.58° Grass 0 ft / 0 m 0 ft / 0 m
18 150 ft / 46 m 2,500 ft / 762 m 179.19° 181.66° Grass 0 ft / 0 m 0 ft / 0 m
24 100 ft / 30 m 5,564 ft / 1,696 m 233.19° 235.66° Asphalt 0 ft / 0 m 0 ft / 0 m
31 150 ft / 46 m 2,282 ft / 696 m 306.12° 308.59° Grass 0 ft / 0 m 0 ft / 0 m
36 150 ft / 46 m 2,500 ft / 762 m 359.19° 1.66° Grass 0 ft / 0 m 0 ft / 0 m

Map

Weather


0- 5 10 15 20 25 30 35+ Temperature / ° C

Clouds and Precipitation
Forecast for 2018-05-20 18:00 UTC. Updated an hour ago

Ground ~20,000 ft ~40,000 ft Winds

METAR

KFEP 201635Z AUTO 05010KT 10SM OVC007 11/09 A3021 RMK AO2 T01070094

TAF

Not found

Frequencies

Recorded 119.02 MHz AWOS 3
Clearance 121.85 MHz CLNC DEL
Unicom 122.80 MHz CTAF/UNICOM
Approach 126.00 MHz ROCKFORD APP/DEP
Warning: Do not use this data for real-world aviation or navigation. No guarantee of current accuracy is given.